sensor_id;sensor_type;location;lat;lon;timestamp;temperature;humidity
1075;DHT22;526;51.392;12.448;2022-12-07T00:01:27;2.80;97.30
1075;DHT22;526;51.392;12.448;2022-12-07T00:03:55;2.70;97.30
1075;DHT22;526;51.392;12.448;2022-12-07T00:06:26;2.70;97.30
1075;DHT22;526;51.392;12.448;2022-12-07T00:08:51;2.70;97.30
1075;DHT22;526;51.392;12.448;2022-12-07T00:11:20;2.70;97.30
1075;DHT22;526;51.392;12.448;2022-12-07T00:13:46;2.70;97.30
1075;DHT22;526;51.392;12.448;2022-12-07T00:16:14;2.70;97.30
1075;DHT22;526;51.392;12.448;2022-12-07T00:18:40;2.70;97.30
1075;DHT22;526;51.392;12.448;2022-12-07T00:21:10;2.70;97.30
1075;DHT22;526;51.392;12.448;2022-12-07T00:23:37;2.70;97.30
1075;DHT22;526;51.392;12.448;2022-12-07T00:26:04;2.70;97.30
1075;DHT22;526;51.392;12.448;2022-12-07T00:28:30;2.70;97.30
1075;DHT22;526;51.392;12.448;2022-12-07T00:31:10;2.60;97.30
1075;DHT22;526;51.392;12.448;2022-12-07T00:33:36;2.50;97.30
1075;DHT22;526;51.392;12.448;2022-12-07T00:36:08;2.50;97.30
1075;DHT22;526;51.392;12.448;2022-12-07T00:38:35;2.50;97.30
1075;DHT22;526;51.392;12.448;2022-12-07T00:41:24;2.50;97.30
1075;DHT22;526;51.392;12.448;2022-12-07T00:43:49;2.50;97.30
1075;DHT22;526;51.392;12.448;2022-12-07T00:46:15;2.50;97.30
1075;DHT22;526;51.392;12.448;2022-12-07T00:48:42;2.40;97.30
1075;DHT22;526;51.392;12.448;2022-12-07T00:51:08;2.50;97.30
1075;DHT22;526;51.392;12.448;2022-12-07T00:53:35;2.50;97.30
1075;DHT22;526;51.392;12.448;2022-12-07T00:56:21;2.50;97.30
1075;DHT22;526;51.392;12.448;2022-12-07T00:58:52;2.40;97.30
1075;DHT22;526;51.392;12.448;2022-12-07T01:01:18;2.40;97.30
1075;DHT22;526;51.392;12.448;2022-12-07T01:03:44;2.40;97.30
1075;DHT22;526;51.392;12.448;2022-12-07T01:06:09;2.30;97.30
1075;DHT22;526;51.392;12.448;2022-12-07T01:08:38;2.30;97.30
1075;DHT22;526;51.392;12.448;2022-12-07T01:11:07;2.30;97.30
1075;DHT22;526;51.392;12.448;2022-12-07T01:13:34;2.20;97.30
1075;DHT22;526;51.392;12.448;2022-12-07T01:16:02;2.20;97.30
1075;DHT22;526;51.392;12.448;2022-12-07T01:18:29;2.10;97.30
1075;DHT22;526;51.392;12.448;2022-12-07T01:21:16;2.00;97.30
1075;DHT22;526;51.392;12.448;2022-12-07T01:23:43;2.00;97.30
1075;DHT22;526;51.392;12.448;2022-12-07T01:26:11;2.00;97.30
1075;DHT22;526;51.392;12.448;2022-12-07T01:28:37;1.90;97.30
1075;DHT22;526;51.392;12.448;2022-12-07T01:31:14;1.90;97.30
1075;DHT22;526;51.392;12.448;2022-12-07T01:33:42;1.80;97.30
1075;DHT22;526;51.392;12.448;2022-12-07T01:38:39;1.70;97.30
1075;DHT22;526;51.392;12.448;2022-12-07T01:41:05;1.70;97.30
1075;DHT22;526;51.392;12.448;2022-12-07T01:43:32;1.70;97.30
1075;DHT22;526;51.392;12.448;2022-12-07T01:45:59;1.70;97.30
1075;DHT22;526;51.392;12.448;2022-12-07T01:48:28;1.70;97.30
1075;DHT22;526;51.392;12.448;2022-12-07T01:50:59;1.60;97.30
1075;DHT22;526;51.392;12.448;2022-12-07T01:53:27;1.60;97.30
1075;DHT22;526;51.392;12.448;2022-12-07T01:55:55;1.60;97.30
1075;DHT22;526;51.392;12.448;2022-12-07T01:58:22;1.60;97.30
1075;DHT22;526;51.392;12.448;2022-12-07T02:00:48;1.50;97.30
1075;DHT22;526;51.392;12.448;2022-12-07T02:05:43;1.50;97.30
1075;DHT22;526;51.392;12.448;2022-12-07T02:08:11;1.40;97.30
1075;DHT22;526;51.392;12.448;2022-12-07T02:10:37;1.40;97.30
1075;DHT22;526;51.392;12.448;2022-12-07T02:13:08;1.40;97.30
1075;DHT22;526;51.392;12.448;2022-12-07T02:27:01;1.30;97.30
1075;DHT22;526;51.392;12.448;2022-12-07T02:35:05;1.30;97.30
1075;DHT22;526;51.392;12.448;2022-12-07T02:37:39;1.20;97.30
1075;DHT22;526;51.392;12.448;2022-12-07T02:43:24;1.20;97.30
1075;DHT22;526;51.392;12.448;2022-12-07T02:45:53;1.20;97.30
1075;DHT22;526;51.392;12.448;2022-12-07T02:48:20;1.20;97.30
1075;DHT22;526;51.392;12.448;2022-12-07T02:50:52;1.20;97.30
1075;DHT22;526;51.392;12.448;2022-12-07T03:02:03;1.20;97.30
1075;DHT22;526;51.392;12.448;2022-12-07T03:07:29;1.20;97.30
1075;DHT22;526;51.392;12.448;2022-12-07T03:16:12;1.20;97.30
1075;DHT22;526;51.392;12.448;2022-12-07T03:18:48;1.20;97.30
1075;DHT22;526;51.392;12.448;2022-12-07T03:21:19;1.20;97.30
1075;DHT22;526;51.392;12.448;2022-12-07T03:23:51;1.10;97.30
1075;DHT22;526;51.392;12.448;2022-12-07T03:26:19;1.20;97.30
1075;DHT22;526;51.392;12.448;2022-12-07T03:28:51;1.10;97.30
1075;DHT22;526;51.392;12.448;2022-12-07T03:34:11;1.10;97.30
1075;DHT22;526;51.392;12.448;2022-12-07T03:36:46;1.10;97.30
1075;DHT22;526;51.392;12.448;2022-12-07T03:41:45;1.20;97.30
1075;DHT22;526;51.392;12.448;2022-12-07T03:44:12;1.20;97.30
1075;DHT22;526;51.392;12.448;2022-12-07T03:47:09;1.20;97.30
1075;DHT22;526;51.392;12.448;2022-12-07T03:50:01;1.20;97.30
1075;DHT22;526;51.392;12.448;2022-12-07T03:52:47;1.30;97.30
1075;DHT22;526;51.392;12.448;2022-12-07T03:55:23;1.30;97.30
1075;DHT22;526;51.392;12.448;2022-12-07T03:57:53;1.30;97.30
1075;DHT22;526;51.392;12.448;2022-12-07T04:00:20;1.30;97.30
1075;DHT22;526;51.392;12.448;2022-12-07T04:02:45;1.40;97.30
1075;DHT22;526;51.392;12.448;2022-12-07T04:05:12;1.40;97.30
1075;DHT22;526;51.392;12.448;2022-12-07T04:07:38;1.40;97.30
1075;DHT22;526;51.392;12.448;2022-12-07T04:10:04;1.40;97.30
1075;DHT22;526;51.392;12.448;2022-12-07T04:12:30;1.40;97.30
1075;DHT22;526;51.392;12.448;2022-12-07T04:14:55;1.40;97.30
1075;DHT22;526;51.392;12.448;2022-12-07T04:17:21;1.50;97.30
1075;DHT22;526;51.392;12.448;2022-12-07T04:19:46;1.50;97.30
1075;DHT22;526;51.392;12.448;2022-12-07T04:22:12;1.50;97.30
1075;DHT22;526;51.392;12.448;2022-12-07T04:24:38;1.50;97.30
1075;DHT22;526;51.392;12.448;2022-12-07T04:27:04;1.50;97.30
1075;DHT22;526;51.392;12.448;2022-12-07T04:29:29;1.50;97.30
1075;DHT22;526;51.392;12.448;2022-12-07T04:31:55;1.50;97.30
1075;DHT22;526;51.392;12.448;2022-12-07T04:34:20;1.60;97.30
1075;DHT22;526;51.392;12.448;2022-12-07T04:36:47;1.60;97.30
1075;DHT22;526;51.392;12.448;2022-12-07T04:39:31;1.60;97.30
1075;DHT22;526;51.392;12.448;2022-12-07T04:41:57;1.70;97.30
1075;DHT22;526;51.392;12.448;2022-12-07T04:44:24;1.70;97.30
1075;DHT22;526;51.392;12.448;2022-12-07T04:46:51;1.70;97.30
1075;DHT22;526;51.392;12.448;2022-12-07T04:49:17;1.70;97.30
1075;DHT22;526;51.392;12.448;2022-12-07T04:51:43;1.70;97.30
1075;DHT22;526;51.392;12.448;2022-12-07T04:54:09;1.70;97.30
1075;DHT22;526;51.392;12.448;2022-12-07T04:56:35;1.80;97.30
1075;DHT22;526;51.392;12.448;2022-12-07T04:59:02;1.80;97.30
1075;DHT22;526;51.392;12.448;2022-12-07T05:01:28;1.80;97.30
1075;DHT22;526;51.392;12.448;2022-12-07T05:03:56;1.80;97.30
1075;DHT22;526;51.392;12.448;2022-12-07T05:06:22;1.80;97.30
1075;DHT22;526;51.392;12.448;2022-12-07T05:08:50;1.90;97.30
1075;DHT22;526;51.392;12.448;2022-12-07T05:11:16;1.90;97.30
1075;DHT22;526;51.392;12.448;2022-12-07T05:14:02;1.90;97.30
1075;DHT22;526;51.392;12.448;2022-12-07T05:16:28;1.90;97.30
1075;DHT22;526;51.392;12.448;2022-12-07T05:24:47;2.00;97.30
1075;DHT22;526;51.392;12.448;2022-12-07T05:30:06;2.00;97.30
1075;DHT22;526;51.392;12.448;2022-12-07T05:33:14;2.00;97.30
1075;DHT22;526;51.392;12.448;2022-12-07T05:35:46;2.00;97.30
1075;DHT22;526;51.392;12.448;2022-12-07T05:38:17;2.00;97.30
1075;DHT22;526;51.392;12.448;2022-12-07T05:40:42;2.10;97.30
1075;DHT22;526;51.392;12.448;2022-12-07T05:43:08;2.10;97.30
1075;DHT22;526;51.392;12.448;2022-12-07T05:45:34;2.10;97.30
1075;DHT22;526;51.392;12.448;2022-12-07T05:47:59;2.10;97.30
1075;DHT22;526;51.392;12.448;2022-12-07T05:50:25;2.10;97.30
1075;DHT22;526;51.392;12.448;2022-12-07T05:52:50;2.10;97.30
1075;DHT22;526;51.392;12.448;2022-12-07T05:55:16;2.10;97.30
1075;DHT22;526;51.392;12.448;2022-12-07T05:57:42;2.10;97.30
1075;DHT22;526;51.392;12.448;2022-12-07T06:00:27;2.10;97.30
1075;DHT22;526;51.392;12.448;2022-12-07T06:02:53;2.20;97.30
1075;DHT22;526;51.392;12.448;2022-12-07T06:05:19;2.20;97.30
1075;DHT22;526;51.392;12.448;2022-12-07T06:07:44;2.20;97.30
1075;DHT22;526;51.392;12.448;2022-12-07T06:10:10;2.20;97.30
1075;DHT22;526;51.392;12.448;2022-12-07T06:12:36;2.20;97.30
1075;DHT22;526;51.392;12.448;2022-12-07T06:15:03;2.30;97.30
1075;DHT22;526;51.392;12.448;2022-12-07T06:17:29;2.30;97.30
1075;DHT22;526;51.392;12.448;2022-12-07T06:19:55;2.30;97.30
1075;DHT22;526;51.392;12.448;2022-12-07T06:22:21;2.30;97.30
1075;DHT22;526;51.392;12.448;2022-12-07T06:24:47;2.30;97.30
1075;DHT22;526;51.392;12.448;2022-12-07T06:27:12;2.30;97.30
1075;DHT22;526;51.392;12.448;2022-12-07T06:29:38;2.30;97.30
1075;DHT22;526;51.392;12.448;2022-12-07T06:32:05;2.30;97.30
1075;DHT22;526;51.392;12.448;2022-12-07T06:34:30;2.30;97.30
1075;DHT22;526;51.392;12.448;2022-12-07T06:36:56;2.30;97.30
1075;DHT22;526;51.392;12.448;2022-12-07T06:39:24;2.30;97.30
1075;DHT22;526;51.392;12.448;2022-12-07T06:41:51;2.30;97.30
1075;DHT22;526;51.392;12.448;2022-12-07T06:44:20;2.30;97.30
1075;DHT22;526;51.392;12.448;2022-12-07T06:46:47;2.20;97.30
1075;DHT22;526;51.392;12.448;2022-12-07T06:49:13;2.30;97.30
1075;DHT22;526;51.392;12.448;2022-12-07T06:51:39;2.30;97.30
1075;DHT22;526;51.392;12.448;2022-12-07T06:54:07;2.30;97.30
1075;DHT22;526;51.392;12.448;2022-12-07T06:56:33;2.30;97.30
1075;DHT22;526;51.392;12.448;2022-12-07T06:58:59;2.40;97.30
1075;DHT22;526;51.392;12.448;2022-12-07T07:01:25;2.40;97.30
1075;DHT22;526;51.392;12.448;2022-12-07T07:03:50;2.40;97.30
1075;DHT22;526;51.392;12.448;2022-12-07T07:06:16;2.50;97.30
1075;DHT22;526;51.392;12.448;2022-12-07T07:08:42;2.50;97.30
1075;DHT22;526;51.392;12.448;2022-12-07T07:11:08;2.50;97.30
1075;DHT22;526;51.392;12.448;2022-12-07T07:13:34;2.50;97.30
1075;DHT22;526;51.392;12.448;2022-12-07T07:16:00;2.60;97.30
1075;DHT22;526;51.392;12.448;2022-12-07T07:18:26;2.60;97.30
1075;DHT22;526;51.392;12.448;2022-12-07T07:20:52;2.60;97.30
1075;DHT22;526;51.392;12.448;2022-12-07T07:23:19;2.60;97.30
1075;DHT22;526;51.392;12.448;2022-12-07T07:25:45;2.70;97.30
1075;DHT22;526;51.392;12.448;2022-12-07T07:28:11;2.70;97.30
1075;DHT22;526;51.392;12.448;2022-12-07T07:30:37;2.70;97.30
1075;DHT22;526;51.392;12.448;2022-12-07T07:33:03;2.70;97.30
1075;DHT22;526;51.392;12.448;2022-12-07T07:35:30;2.70;97.30
1075;DHT22;526;51.392;12.448;2022-12-07T07:37:56;2.80;97.30
1075;DHT22;526;51.392;12.448;2022-12-07T07:40:22;2.80;97.30
1075;DHT22;526;51.392;12.448;2022-12-07T07:42:49;2.80;97.30
1075;DHT22;526;51.392;12.448;2022-12-07T07:45:15;2.80;97.30
1075;DHT22;526;51.392;12.448;2022-12-07T07:47:41;2.80;97.30
1075;DHT22;526;51.392;12.448;2022-12-07T07:50:06;2.80;97.30
1075;DHT22;526;51.392;12.448;2022-12-07T07:52:32;2.80;97.30
1075;DHT22;526;51.392;12.448;2022-12-07T07:54:58;2.90;97.30
1075;DHT22;526;51.392;12.448;2022-12-07T07:57:23;2.80;97.30
1075;DHT22;526;51.392;12.448;2022-12-07T07:59:56;2.80;97.30
1075;DHT22;526;51.392;12.448;2022-12-07T08:02:25;2.80;97.30
1075;DHT22;526;51.392;12.448;2022-12-07T08:04:53;2.80;97.30
1075;DHT22;526;51.392;12.448;2022-12-07T08:10:35;2.80;97.30
1075;DHT22;526;51.392;12.448;2022-12-07T08:13:05;2.90;97.30
1075;DHT22;526;51.392;12.448;2022-12-07T08:16:03;2.90;97.30
1075;DHT22;526;51.392;12.448;2022-12-07T08:18:37;2.80;97.30
1075;DHT22;526;51.392;12.448;2022-12-07T08:21:15;2.80;97.30
1075;DHT22;526;51.392;12.448;2022-12-07T08:23:43;2.80;97.30
1075;DHT22;526;51.392;12.448;2022-12-07T08:26:11;2.90;97.30
1075;DHT22;526;51.392;12.448;2022-12-07T08:28:47;2.90;97.30
1075;DHT22;526;51.392;12.448;2022-12-07T08:31:24;3.00;97.30
1075;DHT22;526;51.392;12.448;2022-12-07T08:34:06;3.00;97.30
1075;DHT22;526;51.392;12.448;2022-12-07T08:36:36;3.10;97.30
1075;DHT22;526;51.392;12.448;2022-12-07T08:39:05;3.10;97.30
1075;DHT22;526;51.392;12.448;2022-12-07T08:41:57;3.10;97.30
1075;DHT22;526;51.392;12.448;2022-12-07T09:03:56;3.50;97.30
1075;DHT22;526;51.392;12.448;2022-12-07T09:06:24;3.50;97.30
1075;DHT22;526;51.392;12.448;2022-12-07T09:09:07;3.50;97.30
1075;DHT22;526;51.392;12.448;2022-12-07T09:15:16;3.60;97.30
1075;DHT22;526;51.392;12.448;2022-12-07T09:18:17;3.70;97.30
1075;DHT22;526;51.392;12.448;2022-12-07T09:20:56;3.70;97.30
1075;DHT22;526;51.392;12.448;2022-12-07T09:23:27;3.70;97.30
1075;DHT22;526;51.392;12.448;2022-12-07T09:26:45;3.70;97.30
1075;DHT22;526;51.392;12.448;2022-12-07T09:31:43;3.80;97.30
1075;DHT22;526;51.392;12.448;2022-12-07T09:34:25;3.90;97.30
1075;DHT22;526;51.392;12.448;2022-12-07T09:36:54;3.90;97.30
1075;DHT22;526;51.392;12.448;2022-12-07T09:39:43;3.90;97.30
1075;DHT22;526;51.392;12.448;2022-12-07T09:42:44;3.90;97.30
1075;DHT22;526;51.392;12.448;2022-12-07T09:45:35;4.00;97.30
1075;DHT22;526;51.392;12.448;2022-12-07T09:48:05;4.00;97.30
1075;DHT22;526;51.392;12.448;2022-12-07T09:50:34;4.00;97.30
1075;DHT22;526;51.392;12.448;2022-12-07T09:56:34;4.00;97.30
1075;DHT22;526;51.392;12.448;2022-12-07T09:59:03;3.90;97.30
1075;DHT22;526;51.392;12.448;2022-12-07T10:01:34;3.80;97.30
1075;DHT22;526;51.392;12.448;2022-12-07T10:06:57;3.70;97.30
1075;DHT22;526;51.392;12.448;2022-12-07T10:09:25;3.70;97.30
1075;DHT22;526;51.392;12.448;2022-12-07T10:12:07;3.70;97.30
1075;DHT22;526;51.392;12.448;2022-12-07T10:14:36;3.70;97.30
1075;DHT22;526;51.392;12.448;2022-12-07T10:17:02;3.70;97.30
1075;DHT22;526;51.392;12.448;2022-12-07T10:19:31;3.80;97.30
1075;DHT22;526;51.392;12.448;2022-12-07T10:22:10;3.80;97.30
1075;DHT22;526;51.392;12.448;2022-12-07T10:24:37;3.80;97.30
1075;DHT22;526;51.392;12.448;2022-12-07T10:27:04;3.80;97.30
1075;DHT22;526;51.392;12.448;2022-12-07T10:29:38;3.90;97.30
1075;DHT22;526;51.392;12.448;2022-12-07T10:34:39;4.00;97.30
1075;DHT22;526;51.392;12.448;2022-12-07T10:42:22;4.10;97.30
1075;DHT22;526;51.392;12.448;2022-12-07T10:44:50;4.10;97.30
1075;DHT22;526;51.392;12.448;2022-12-07T11:07:01;4.30;97.30
1075;DHT22;526;51.392;12.448;2022-12-07T11:13:21;4.40;97.30
1075;DHT22;526;51.392;12.448;2022-12-07T11:15:17;4.40;97.30
1075;DHT22;526;51.392;12.448;2022-12-07T11:18:06;4.40;97.30
1075;DHT22;526;51.392;12.448;2022-12-07T11:20:45;4.50;97.30
1075;DHT22;526;51.392;12.448;2022-12-07T11:25:54;4.50;97.30
1075;DHT22;526;51.392;12.448;2022-12-07T11:28:59;4.60;97.30
1075;DHT22;526;51.392;12.448;2022-12-07T11:34:43;4.60;97.30
1075;DHT22;526;51.392;12.448;2022-12-07T11:37:16;4.60;97.30
1075;DHT22;526;51.392;12.448;2022-12-07T11:42:37;4.40;97.30
1075;DHT22;526;51.392;12.448;2022-12-07T11:45:19;4.40;97.30
1075;DHT22;526;51.392;12.448;2022-12-07T11:47:52;4.40;97.30
1075;DHT22;526;51.392;12.448;2022-12-07T11:53:17;4.40;97.30
1075;DHT22;526;51.392;12.448;2022-12-07T12:03:41;4.50;97.30
1075;DHT22;526;51.392;12.448;2022-12-07T12:06:09;4.50;97.30
1075;DHT22;526;51.392;12.448;2022-12-07T12:08:40;4.50;97.30
1075;DHT22;526;51.392;12.448;2022-12-07T12:22:37;4.50;97.30
1075;DHT22;526;51.392;12.448;2022-12-07T12:25:19;4.50;97.30
1075;DHT22;526;51.392;12.448;2022-12-07T12:27:48;4.50;97.30
1075;DHT22;526;51.392;12.448;2022-12-07T12:30:37;4.60;97.30
1075;DHT22;526;51.392;12.448;2022-12-07T12:33:23;4.70;97.30
1075;DHT22;526;51.392;12.448;2022-12-07T12:36:17;4.70;97.30
1075;DHT22;526;51.392;12.448;2022-12-07T12:39:08;4.70;97.30
1075;DHT22;526;51.392;12.448;2022-12-07T12:46:48;4.80;97.30
1075;DHT22;526;51.392;12.448;2022-12-07T12:51:56;4.80;97.30
1075;DHT22;526;51.392;12.448;2022-12-07T12:54:24;4.80;97.30
1075;DHT22;526;51.392;12.448;2022-12-07T12:57:16;4.80;97.30
1075;DHT22;526;51.392;12.448;2022-12-07T12:59:57;4.80;97.30
1075;DHT22;526;51.392;12.448;2022-12-07T13:02:37;4.80;97.30
1075;DHT22;526;51.392;12.448;2022-12-07T13:10:39;4.90;97.30
1075;DHT22;526;51.392;12.448;2022-12-07T13:15:42;5.00;97.30
1075;DHT22;526;51.392;12.448;2022-12-07T13:23:24;5.00;97.30
1075;DHT22;526;51.392;12.448;2022-12-07T13:28:35;5.00;97.30
1075;DHT22;526;51.392;12.448;2022-12-07T13:31:23;5.00;97.30
1075;DHT22;526;51.392;12.448;2022-12-07T13:33:51;5.00;97.30
1075;DHT22;526;51.392;12.448;2022-12-07T13:36:25;5.10;97.30
1075;DHT22;526;51.392;12.448;2022-12-07T13:38:57;5.00;97.30
1075;DHT22;526;51.392;12.448;2022-12-07T13:41:28;5.00;97.30
1075;DHT22;526;51.392;12.448;2022-12-07T13:44:10;5.10;97.30
1075;DHT22;526;51.392;12.448;2022-12-07T13:46:55;5.10;97.30
1075;DHT22;526;51.392;12.448;2022-12-07T13:49:30;5.10;97.30
1075;DHT22;526;51.392;12.448;2022-12-07T13:52:16;5.10;97.30
1075;DHT22;526;51.392;12.448;2022-12-07T13:54:49;5.10;97.30
1075;DHT22;526;51.392;12.448;2022-12-07T13:57:20;5.10;97.30
1075;DHT22;526;51.392;12.448;2022-12-07T13:59:46;5.10;97.30
1075;DHT22;526;51.392;12.448;2022-12-07T14:02:27;5.10;97.30
1075;DHT22;526;51.392;12.448;2022-12-07T14:05:10;5.10;97.30
1075;DHT22;526;51.392;12.448;2022-12-07T14:08:33;5.10;97.30
1075;DHT22;526;51.392;12.448;2022-12-07T14:15:50;5.10;97.30
1075;DHT22;526;51.392;12.448;2022-12-07T14:23:37;4.90;97.30
1075;DHT22;526;51.392;12.448;2022-12-07T14:28:38;4.90;97.30
1075;DHT22;526;51.392;12.448;2022-12-07T14:31:16;4.90;97.30
1075;DHT22;526;51.392;12.448;2022-12-07T14:33:43;4.80;97.30
1075;DHT22;526;51.392;12.448;2022-12-07T14:36:09;4.80;97.30
1075;DHT22;526;51.392;12.448;2022-12-07T14:38:35;4.70;97.30
1075;DHT22;526;51.392;12.448;2022-12-07T14:41:01;4.70;97.30
1075;DHT22;526;51.392;12.448;2022-12-07T14:43:59;4.70;97.30
1075;DHT22;526;51.392;12.448;2022-12-07T14:46:25;4.70;97.30
1075;DHT22;526;51.392;12.448;2022-12-07T14:48:50;4.60;97.30
1075;DHT22;526;51.392;12.448;2022-12-07T14:51:16;4.60;97.30
1075;DHT22;526;51.392;12.448;2022-12-07T14:53:46;4.60;97.30
1075;DHT22;526;51.392;12.448;2022-12-07T14:56:13;4.50;97.30
1075;DHT22;526;51.392;12.448;2022-12-07T14:58:39;4.50;97.30
1075;DHT22;526;51.392;12.448;2022-12-07T15:01:05;4.50;97.30
1075;DHT22;526;51.392;12.448;2022-12-07T15:03:31;4.40;97.30
1075;DHT22;526;51.392;12.448;2022-12-07T15:05:56;4.40;97.30
1075;DHT22;526;51.392;12.448;2022-12-07T15:08:22;4.40;97.30
1075;DHT22;526;51.392;12.448;2022-12-07T15:10:47;4.40;97.30
1075;DHT22;526;51.392;12.448;2022-12-07T15:13:13;4.30;97.30
1075;DHT22;526;51.392;12.448;2022-12-07T15:15:57;4.30;97.30
1075;DHT22;526;51.392;12.448;2022-12-07T15:18:24;4.30;97.30
1075;DHT22;526;51.392;12.448;2022-12-07T15:20:50;4.30;97.30
1075;DHT22;526;51.392;12.448;2022-12-07T15:23:15;4.20;97.30
1075;DHT22;526;51.392;12.448;2022-12-07T15:25:46;4.20;97.30
1075;DHT22;526;51.392;12.448;2022-12-07T15:28:13;4.20;97.30
1075;DHT22;526;51.392;12.448;2022-12-07T15:30:41;4.10;97.30
1075;DHT22;526;51.392;12.448;2022-12-07T15:33:08;4.10;97.30
1075;DHT22;526;51.392;12.448;2022-12-07T15:35:33;4.10;97.30
1075;DHT22;526;51.392;12.448;2022-12-07T15:38:03;4.10;97.30
1075;DHT22;526;51.392;12.448;2022-12-07T15:40:29;4.10;97.30
1075;DHT22;526;51.392;12.448;2022-12-07T15:42:54;4.10;97.30
1075;DHT22;526;51.392;12.448;2022-12-07T15:45:20;4.00;97.30
1075;DHT22;526;51.392;12.448;2022-12-07T15:47:45;4.00;97.30
1075;DHT22;526;51.392;12.448;2022-12-07T15:50:13;4.00;97.30
1075;DHT22;526;51.392;12.448;2022-12-07T15:52:39;4.00;97.30
1075;DHT22;526;51.392;12.448;2022-12-07T15:55:05;4.00;97.30
1075;DHT22;526;51.392;12.448;2022-12-07T15:57:33;4.00;97.30
1075;DHT22;526;51.392;12.448;2022-12-07T15:59:59;4.00;97.30
1075;DHT22;526;51.392;12.448;2022-12-07T16:02:24;4.00;97.30
1075;DHT22;526;51.392;12.448;2022-12-07T16:04:51;4.10;97.30
1075;DHT22;526;51.392;12.448;2022-12-07T16:07:17;4.10;97.30
1075;DHT22;526;51.392;12.448;2022-12-07T16:09:43;4.10;97.30
1075;DHT22;526;51.392;12.448;2022-12-07T16:12:09;4.10;97.30
1075;DHT22;526;51.392;12.448;2022-12-07T16:14:35;4.10;97.30
1075;DHT22;526;51.392;12.448;2022-12-07T16:17:01;4.00;97.30
1075;DHT22;526;51.392;12.448;2022-12-07T16:19:27;3.90;97.30
1075;DHT22;526;51.392;12.448;2022-12-07T16:21:52;3.80;97.30
1075;DHT22;526;51.392;12.448;2022-12-07T16:24:18;3.70;97.30
1075;DHT22;526;51.392;12.448;2022-12-07T16:26:44;3.70;97.30
1075;DHT22;526;51.392;12.448;2022-12-07T16:29:13;3.60;97.30
1075;DHT22;526;51.392;12.448;2022-12-07T16:31:39;3.60;97.30
1075;DHT22;526;51.392;12.448;2022-12-07T16:34:05;3.50;97.30
1075;DHT22;526;51.392;12.448;2022-12-07T16:36:31;3.50;97.30
1075;DHT22;526;51.392;12.448;2022-12-07T16:38:58;3.40;97.30
1075;DHT22;526;51.392;12.448;2022-12-07T16:41:24;3.40;97.30
1075;DHT22;526;51.392;12.448;2022-12-07T16:43:49;3.30;97.30
1075;DHT22;526;51.392;12.448;2022-12-07T16:46:15;3.30;97.30
1075;DHT22;526;51.392;12.448;2022-12-07T16:48:41;3.20;97.30
1075;DHT22;526;51.392;12.448;2022-12-07T16:51:09;3.20;97.30
1075;DHT22;526;51.392;12.448;2022-12-07T16:53:36;3.20;97.30
1075;DHT22;526;51.392;12.448;2022-12-07T16:56:02;3.20;97.30
1075;DHT22;526;51.392;12.448;2022-12-07T16:58:27;3.20;97.30
1075;DHT22;526;51.392;12.448;2022-12-07T17:00:53;3.10;97.30
1075;DHT22;526;51.392;12.448;2022-12-07T17:03:19;3.10;97.30
1075;DHT22;526;51.392;12.448;2022-12-07T17:05:46;3.10;97.30
1075;DHT22;526;51.392;12.448;2022-12-07T17:08:12;3.10;97.30
1075;DHT22;526;51.392;12.448;2022-12-07T17:10:40;3.10;97.30
1075;DHT22;526;51.392;12.448;2022-12-07T17:13:07;3.10;97.30
1075;DHT22;526;51.392;12.448;2022-12-07T17:16:03;3.10;97.30
1075;DHT22;526;51.392;12.448;2022-12-07T17:18:31;3.10;97.30
1075;DHT22;526;51.392;12.448;2022-12-07T17:21:08;3.10;97.30
1075;DHT22;526;51.392;12.448;2022-12-07T17:23:35;3.10;97.30
1075;DHT22;526;51.392;12.448;2022-12-07T17:38:52;3.20;97.30
1075;DHT22;526;51.392;12.448;2022-12-07T17:41:20;3.20;97.30
1075;DHT22;526;51.392;12.448;2022-12-07T17:44:10;3.10;97.30
1075;DHT22;526;51.392;12.448;2022-12-07T17:46:37;3.10;97.30
1075;DHT22;526;51.392;12.448;2022-12-07T17:49:03;3.20;97.30
1075;DHT22;526;51.392;12.448;2022-12-07T17:51:29;3.20;97.30
1075;DHT22;526;51.392;12.448;2022-12-07T17:54:15;3.10;97.30
1075;DHT22;526;51.392;12.448;2022-12-07T17:56:41;3.10;97.30
1075;DHT22;526;51.392;12.448;2022-12-07T17:59:19;3.10;97.30
1075;DHT22;526;51.392;12.448;2022-12-07T18:01:45;3.10;97.30
1075;DHT22;526;51.392;12.448;2022-12-07T18:04:11;3.10;97.30
1075;DHT22;526;51.392;12.448;2022-12-07T18:06:37;3.10;97.30
1075;DHT22;526;51.392;12.448;2022-12-07T18:09:03;3.10;97.30
1075;DHT22;526;51.392;12.448;2022-12-07T18:11:30;3.10;97.30
1075;DHT22;526;51.392;12.448;2022-12-07T18:13:56;3.10;97.30
1075;DHT22;526;51.392;12.448;2022-12-07T18:16:45;3.10;97.30
1075;DHT22;526;51.392;12.448;2022-12-07T18:19:12;3.10;97.30
1075;DHT22;526;51.392;12.448;2022-12-07T18:21:39;3.10;97.30
1075;DHT22;526;51.392;12.448;2022-12-07T18:24:05;3.20;97.30
1075;DHT22;526;51.392;12.448;2022-12-07T18:26:33;3.20;97.30
1075;DHT22;526;51.392;12.448;2022-12-07T18:29:03;3.20;97.30
1075;DHT22;526;51.392;12.448;2022-12-07T18:31:30;3.20;97.30
1075;DHT22;526;51.392;12.448;2022-12-07T18:33:59;3.20;97.30
1075;DHT22;526;51.392;12.448;2022-12-07T18:36:25;3.20;97.30
1075;DHT22;526;51.392;12.448;2022-12-07T18:38:51;3.20;97.30
1075;DHT22;526;51.392;12.448;2022-12-07T18:41:17;3.20;97.30
1075;DHT22;526;51.392;12.448;2022-12-07T18:43:43;3.20;97.30
1075;DHT22;526;51.392;12.448;2022-12-07T18:46:16;3.20;97.30
1075;DHT22;526;51.392;12.448;2022-12-07T18:48:42;3.20;97.30
1075;DHT22;526;51.392;12.448;2022-12-07T18:51:10;3.20;97.30
1075;DHT22;526;51.392;12.448;2022-12-07T18:53:36;3.20;97.30
1075;DHT22;526;51.392;12.448;2022-12-07T18:56:06;3.20;97.30
1075;DHT22;526;51.392;12.448;2022-12-07T18:58:33;3.20;97.30
1075;DHT22;526;51.392;12.448;2022-12-07T19:00:59;3.20;97.30
1075;DHT22;526;51.392;12.448;2022-12-07T19:03:25;3.20;97.30
1075;DHT22;526;51.392;12.448;2022-12-07T19:05:52;3.20;97.30
1075;DHT22;526;51.392;12.448;2022-12-07T19:08:22;3.20;97.30
1075;DHT22;526;51.392;12.448;2022-12-07T19:10:55;3.20;97.30
1075;DHT22;526;51.392;12.448;2022-12-07T19:13:40;3.20;97.30
1075;DHT22;526;51.392;12.448;2022-12-07T19:16:26;3.20;97.30
1075;DHT22;526;51.392;12.448;2022-12-07T19:18:52;3.20;97.30
1075;DHT22;526;51.392;12.448;2022-12-07T19:21:17;3.20;97.30
1075;DHT22;526;51.392;12.448;2022-12-07T19:23:43;3.20;97.30
1075;DHT22;526;51.392;12.448;2022-12-07T19:26:09;3.20;97.30
1075;DHT22;526;51.392;12.448;2022-12-07T19:28:49;3.20;97.30
1075;DHT22;526;51.392;12.448;2022-12-07T19:31:15;3.20;97.30
1075;DHT22;526;51.392;12.448;2022-12-07T19:33:40;3.20;97.30
1075;DHT22;526;51.392;12.448;2022-12-07T19:36:06;3.30;97.30
1075;DHT22;526;51.392;12.448;2022-12-07T19:38:33;3.30;97.30
1075;DHT22;526;51.392;12.448;2022-12-07T19:41:06;3.20;97.30
1075;DHT22;526;51.392;12.448;2022-12-07T19:43:33;3.20;97.30
1075;DHT22;526;51.392;12.448;2022-12-07T19:46:05;3.20;97.30
1075;DHT22;526;51.392;12.448;2022-12-07T19:48:33;3.20;97.30
1075;DHT22;526;51.392;12.448;2022-12-07T19:51:03;3.20;97.30
1075;DHT22;526;51.392;12.448;2022-12-07T19:53:32;3.20;97.30
1075;DHT22;526;51.392;12.448;2022-12-07T19:55:57;3.20;97.30
1075;DHT22;526;51.392;12.448;2022-12-07T19:58:23;3.10;97.30
1075;DHT22;526;51.392;12.448;2022-12-07T20:00:49;3.10;97.30